Time;durP1;ratioP1;P1;durP2;ratioP2;P2;SDS_P1;SDS_P2;PMS_P1;PMS_P2;Temp;Humidity;BMP_temperature;BMP_pressure;BME280_temperature;BME280_humidity;BME280_pressure;Samples;Min_cycle;Max_cycle;Signal;HPM_P1;HPM_P2
2022/09/24 00:00:19;;;;;;;6.80;5.30;;;;;;;;;;5031816;28;20946;-45
2022/09/24 00:02:45;;;;;;;6.20;5.20;;;;;;;;;;5050772;28;20433;-45
2022/09/24 00:05:11;;;;;;;7.13;5.43;;;;;;;;;;5033846;28;20470;-45
2022/09/24 00:07:37;;;;;;;12.20;5.67;;;;;;;;;;5039706;28;20498;-45
2022/09/24 00:10:03;;;;;;;6.13;5.50;;;;;;;;;;5035364;28;20424;-45
2022/09/24 00:12:29;;;;;;;10.03;5.37;;;;;;;;;;5051313;28;20420;-45
2022/09/24 00:14:55;;;;;;;8.90;5.50;;;;;;;;;;5038318;28;20840;-45
2022/09/24 00:17:21;;;;;;;6.60;4.77;;;;;;;;;;5038778;28;20799;-45
2022/09/24 00:19:46;;;;;;;9.93;5.30;;;;;;;;;;5051327;28;20425;-46
2022/09/24 00:22:12;;;;;;;5.93;5.33;;;;;;;;;;5049921;28;20456;-45
2022/09/24 00:27:23;;;;;;;11.43;5.10;;;;;;;;;;5032586;28;20467;-45
2022/09/24 00:29:49;;;;;;;11.87;6.60;;;;;;;;;;5046307;28;20417;-45
2022/09/24 00:32:15;;;;;;;8.40;6.53;;;;;;;;;;5043825;28;20450;-45
2022/09/24 00:34:41;;;;;;;10.70;6.70;;;;;;;;;;5031090;28;20433;-45
2022/09/24 00:37:07;;;;;;;7.97;7.27;;;;;;;;;;5039397;28;20423;-45
2022/09/24 00:39:34;;;;;;;7.77;6.97;;;;;;;;;;5042898;28;20415;-46
2022/09/24 00:42:00;;;;;;;7.03;6.33;;;;;;;;;;5042604;28;20928;-45
2022/09/24 00:44:38;;;;;;;10.13;7.63;;;;;;;;;;5041977;28;20449;-45
2022/09/24 00:47:04;;;;;;;9.27;7.33;;;;;;;;;;5031267;28;20450;-45
2022/09/24 00:49:30;;;;;;;9.80;7.13;;;;;;;;;;5031111;28;20922;-46
2022/09/24 00:51:57;;;;;;;8.03;7.33;;;;;;;;;;5043550;28;20755;-45
2022/09/24 00:54:25;;;;;;;12.17;8.93;;;;;;;;;;5031214;28;20399;-45
2022/09/24 00:56:52;;;;;;;10.60;9.40;;;;;;;;;;5036940;28;20464;-46
2022/09/24 00:59:18;;;;;;;17.80;11.23;;;;;;;;;;5051245;28;20403;-45
2022/09/24 01:01:46;;;;;;;12.63;9.13;;;;;;;;;;5050303;28;20432;-45
2022/09/24 01:04:13;;;;;;;10.83;9.60;;;;;;;;;;5050746;28;20468;-45
2022/09/24 01:06:39;;;;;;;10.20;8.97;;;;;;;;;;5039482;28;20801;-45
2022/09/24 01:09:05;;;;;;;11.17;9.60;;;;;;;;;;5042962;28;20968;-45
2022/09/24 01:11:50;;;;;;;11.40;8.70;;;;;;;;;;5035060;28;20483;-45
2022/09/24 01:14:16;;;;;;;13.90;8.60;;;;;;;;;;5046136;28;20788;-43
2022/09/24 01:17:01;;;;;;;13.30;8.80;;;;;;;;;;5038784;28;20438;-44
2022/09/24 01:19:33;;;;;;;13.13;9.20;;;;;;;;;;5047814;28;20406;-43
2022/09/24 01:22:18;;;;;;;8.60;7.73;;;;;;;;;;5050523;28;20952;-43
2022/09/24 01:24:47;;;;;;;11.30;7.80;;;;;;;;;;5039489;28;20993;-44
2022/09/24 01:27:16;;;;;;;16.30;7.73;;;;;;;;;;5037457;28;20437;-44
2022/09/24 01:29:52;;;;;;;10.97;8.00;;;;;;;;;;5054320;28;20413;-43
2022/09/24 01:32:28;;;;;;;11.10;8.37;;;;;;;;;;5051491;28;20427;-43
2022/09/24 01:35:00;;;;;;;9.57;7.33;;;;;;;;;;5033894;28;20425;-44
2022/09/24 01:37:27;;;;;;;8.87;7.33;;;;;;;;;;5037890;28;20537;-46
2022/09/24 01:39:54;;;;;;;10.27;7.90;;;;;;;;;;5047106;28;20423;-43
2022/09/24 01:42:22;;;;;;;9.93;7.60;;;;;;;;;;5035509;28;20460;-44
2022/09/24 01:44:49;;;;;;;9.13;8.20;;;;;;;;;;5033776;28;20973;-43
2022/09/24 01:47:20;;;;;;;9.73;7.50;;;;;;;;;;5049300;28;20945;-44
2022/09/24 01:49:46;;;;;;;13.10;8.40;;;;;;;;;;5042398;28;20599;-43
2022/09/24 01:52:14;;;;;;;14.87;7.70;;;;;;;;;;5054164;28;20408;-43
2022/09/24 01:54:42;;;;;;;15.23;8.90;;;;;;;;;;5042081;28;20414;-43
2022/09/24 01:57:11;;;;;;;10.03;8.30;;;;;;;;;;5050756;28;20867;-43
2022/09/24 01:59:48;;;;;;;11.60;8.67;;;;;;;;;;5051016;28;20505;-43
2022/09/24 02:02:17;;;;;;;12.03;9.30;;;;;;;;;;5034119;28;20430;-43
2022/09/24 02:04:46;;;;;;;15.90;9.60;;;;;;;;;;5053206;28;20480;-43
2022/09/24 02:07:20;;;;;;;11.93;8.63;;;;;;;;;;5035319;28;20444;-44
2022/09/24 02:09:46;;;;;;;11.43;8.90;;;;;;;;;;5049964;28;20413;-44
2022/09/24 02:12:27;;;;;;;12.97;9.20;;;;;;;;;;5044950;28;20452;-44
2022/09/24 02:14:55;;;;;;;16.10;8.53;;;;;;;;;;5052695;28;20558;-43
2022/09/24 02:17:22;;;;;;;12.60;8.57;;;;;;;;;;5033861;28;20517;-44
2022/09/24 02:19:49;;;;;;;12.90;8.23;;;;;;;;;;5036871;28;20467;-43
2022/09/24 02:22:16;;;;;;;15.40;9.23;;;;;;;;;;5046070;28;20422;-47
2022/09/24 02:24:43;;;;;;;11.57;7.80;;;;;;;;;;5050118;28;20836;-43
2022/09/24 02:27:09;;;;;;;14.30;9.13;;;;;;;;;;5035964;28;20486;-44
2022/09/24 02:29:35;;;;;;;13.83;8.50;;;;;;;;;;5047277;28;20477;-43
2022/09/24 02:32:02;;;;;;;11.93;9.20;;;;;;;;;;5051253;28;20427;-43
2022/09/24 02:34:34;;;;;;;15.97;10.30;;;;;;;;;;5033315;28;20421;-45
2022/09/24 02:37:05;;;;;;;14.70;10.30;;;;;;;;;;5048599;28;20450;-43
2022/09/24 02:39:31;;;;;;;15.87;10.83;;;;;;;;;;5049762;28;20424;-43
2022/09/24 02:41:58;;;;;;;13.63;10.80;;;;;;;;;;5033300;28;20801;-43
2022/09/24 02:44:24;;;;;;;15.40;10.70;;;;;;;;;;5043176;28;20952;-43
2022/09/24 02:46:50;;;;;;;13.93;11.20;;;;;;;;;;5038193;28;20440;-43
2022/09/24 02:49:16;;;;;;;22.93;11.80;;;;;;;;;;5034327;28;20784;-43
2022/09/24 02:51:42;;;;;;;13.63;10.70;;;;;;;;;;5033579;28;20481;-43
2022/09/24 02:54:08;;;;;;;14.53;10.80;;;;;;;;;;5039284;28;20966;-43
2022/09/24 02:56:34;;;;;;;15.27;10.80;;;;;;;;;;5039134;28;20437;-43
2022/09/24 02:59:01;;;;;;;15.03;10.67;;;;;;;;;;5052495;28;20917;-43
2022/09/24 03:01:27;;;;;;;13.73;10.20;;;;;;;;;;5049146;28;20412;-43
2022/09/24 03:03:53;;;;;;;15.10;11.20;;;;;;;;;;5032799;28;20863;-43
2022/09/24 03:06:19;;;;;;;16.83;10.80;;;;;;;;;;5033252;28;20429;-43
2022/09/24 03:08:45;;;;;;;19.00;10.93;;;;;;;;;;5040672;28;20420;-44
2022/09/24 03:11:11;;;;;;;14.73;11.10;;;;;;;;;;5032715;28;20763;-43
2022/09/24 03:13:37;;;;;;;13.63;10.10;;;;;;;;;;5041735;28;20416;-43
2022/09/24 03:16:04;;;;;;;13.57;9.50;;;;;;;;;;5047150;28;20423;-43
2022/09/24 03:18:30;;;;;;;17.70;11.20;;;;;;;;;;5050674;28;20798;-46
2022/09/24 03:21:00;;;;;;;11.20;9.30;;;;;;;;;;5032865;28;20460;-43
2022/09/24 03:23:26;;;;;;;16.03;10.30;;;;;;;;;;5033505;28;20424;-44
2022/09/24 03:25:52;;;;;;;13.90;10.77;;;;;;;;;;5037313;28;20405;-43
2022/09/24 03:28:18;;;;;;;16.73;10.60;;;;;;;;;;5038162;28;20444;-44
2022/09/24 03:30:59;;;;;;;25.43;9.80;;;;;;;;;;5032325;28;20420;-46
2022/09/24 03:33:26;;;;;;;17.77;11.07;;;;;;;;;;5032376;28;20417;-42
2022/09/24 03:35:56;;;;;;;12.83;11.00;;;;;;;;;;5035162;28;20491;-45
2022/09/24 03:38:22;;;;;;;16.13;11.33;;;;;;;;;;5033675;28;20439;-43
2022/09/24 03:40:48;;;;;;;15.47;12.50;;;;;;;;;;5052242;28;20404;-43
2022/09/24 03:43:14;;;;;;;18.83;13.00;;;;;;;;;;5047774;28;20423;-43
2022/09/24 03:45:40;;;;;;;20.50;11.93;;;;;;;;;;5032648;28;20457;-43
2022/09/24 03:48:06;;;;;;;14.03;10.57;;;;;;;;;;5034857;28;20439;-43
2022/09/24 03:50:35;;;;;;;19.53;12.47;;;;;;;;;;5051938;28;20406;-43
2022/09/24 03:53:01;;;;;;;23.17;11.17;;;;;;;;;;5035578;28;20424;-43
2022/09/24 03:55:27;;;;;;;15.70;11.90;;;;;;;;;;5048198;28;20423;-43
2022/09/24 03:57:53;;;;;;;14.67;11.50;;;;;;;;;;5050402;28;20459;-43
2022/09/24 04:00:19;;;;;;;13.40;11.30;;;;;;;;;;5032009;28;20407;-43
2022/09/24 04:02:45;;;;;;;20.07;11.90;;;;;;;;;;5045210;28;20787;-44
2022/09/24 04:05:11;;;;;;;15.47;11.47;;;;;;;;;;5037505;28;21046;-44
2022/09/24 04:07:37;;;;;;;16.83;12.30;;;;;;;;;;5032060;28;20427;-46
2022/09/24 04:10:03;;;;;;;18.17;11.40;;;;;;;;;;5050690;28;20506;-44
2022/09/24 04:12:30;;;;;;;17.50;12.73;;;;;;;;;;5051747;28;20401;-43
2022/09/24 04:14:56;;;;;;;14.43;10.80;;;;;;;;;;5043122;28;20419;-43
2022/09/24 04:17:22;;;;;;;16.60;12.50;;;;;;;;;;5037520;28;20858;-43
2022/09/24 04:19:50;;;;;;;16.43;11.57;;;;;;;;;;5045066;28;20432;-45
2022/09/24 04:22:16;;;;;;;16.87;13.50;;;;;;;;;;5031797;28;20404;-44
2022/09/24 04:24:42;;;;;;;16.90;11.97;;;;;;;;;;5038454;28;20464;-48
2022/09/24 04:27:08;;;;;;;21.90;12.37;;;;;;;;;;5034474;28;20443;-43
2022/09/24 04:29:34;;;;;;;17.60;13.00;;;;;;;;;;5036168;28;20440;-43
2022/09/24 04:32:00;;;;;;;18.17;13.03;;;;;;;;;;5049749;28;20419;-44
2022/09/24 04:34:26;;;;;;;16.67;12.60;;;;;;;;;;5042927;28;20410;-43
2022/09/24 04:36:52;;;;;;;15.60;12.90;;;;;;;;;;5051099;28;20494;-43
2022/09/24 04:39:18;;;;;;;15.00;12.93;;;;;;;;;;5040240;28;20797;-43
2022/09/24 04:41:46;;;;;;;18.47;12.97;;;;;;;;;;5035527;28;20776;-44
2022/09/24 04:44:14;;;;;;;17.40;12.70;;;;;;;;;;5043057;28;20870;-43
2022/09/24 04:46:40;;;;;;;27.30;13.23;;;;;;;;;;5038921;28;20481;-44
2022/09/24 04:49:08;;;;;;;17.30;11.80;;;;;;;;;;5035322;28;20478;-43
2022/09/24 04:51:35;;;;;;;14.30;11.80;;;;;;;;;;5046176;28;20465;-44
2022/09/24 04:54:04;;;;;;;19.73;11.83;;;;;;;;;;5052501;28;20842;-43
2022/09/24 04:56:30;;;;;;;18.90;11.77;;;;;;;;;;5034522;28;20496;-43
2022/09/24 04:58:56;;;;;;;19.43;12.00;;;;;;;;;;5052610;28;20439;-46
2022/09/24 05:01:23;;;;;;;19.00;11.27;;;;;;;;;;5037632;28;20497;-46
2022/09/24 05:03:49;;;;;;;18.13;11.73;;;;;;;;;;5041512;28;20829;-45
2022/09/24 05:06:15;;;;;;;15.90;11.53;;;;;;;;;;5034429;28;20406;-44
2022/09/24 05:08:41;;;;;;;13.50;11.10;;;;;;;;;;5041329;28;20481;-46
2022/09/24 05:11:08;;;;;;;17.67;10.80;;;;;;;;;;5053892;28;20405;-46
2022/09/24 05:13:34;;;;;;;15.03;11.73;;;;;;;;;;5034964;28;20530;-44
2022/09/24 05:16:01;;;;;;;17.10;10.57;;;;;;;;;;5050752;28;20410;-43
2022/09/24 05:18:27;;;;;;;17.00;11.67;;;;;;;;;;5049349;28;20432;-43
2022/09/24 05:20:53;;;;;;;16.20;10.27;;;;;;;;;;5034955;28;20403;-43
2022/09/24 05:23:19;;;;;;;13.37;11.03;;;;;;;;;;5038027;28;20496;-43
2022/09/24 05:28:31;;;;;;;15.10;11.30;;;;;;;;;;5051042;28;20900;-43
2022/09/24 05:30:58;;;;;;;20.63;11.70;;;;;;;;;;5049352;28;20414;-44
2022/09/24 05:33:24;;;;;;;13.50;11.13;;;;;;;;;;5050213;28;20385;-43
2022/09/24 05:35:54;;;;;;;16.60;11.77;;;;;;;;;;5050005;28;20409;-43
2022/09/24 05:38:20;;;;;;;14.37;10.00;;;;;;;;;;5042417;28;20431;-43
2022/09/24 05:40:49;;;;;;;14.03;10.00;;;;;;;;;;5054438;28;20406;-44
2022/09/24 05:43:15;;;;;;;14.60;10.50;;;;;;;;;;5040406;28;20495;-43
2022/09/24 05:45:42;;;;;;;12.93;11.50;;;;;;;;;;5048373;28;20467;-43
2022/09/24 05:48:07;;;;;;;14.70;9.80;;;;;;;;;;5052497;28;20479;-43
2022/09/24 05:50:33;;;;;;;18.10;10.70;;;;;;;;;;5039604;28;20448;-43
2022/09/24 05:53:00;;;;;;;16.50;10.77;;;;;;;;;;5045351;28;20769;-42
2022/09/24 05:55:26;;;;;;;13.83;10.93;;;;;;;;;;5037090;28;20449;-43
2022/09/24 05:57:52;;;;;;;14.63;11.37;;;;;;;;;;5044176;28;20423;-44
2022/09/24 06:00:18;;;;;;;13.87;11.30;;;;;;;;;;5050603;28;20415;-43
2022/09/24 06:02:44;;;;;;;15.77;11.10;;;;;;;;;;5048365;28;20465;-43
2022/09/24 06:05:11;;;;;;;13.67;10.33;;;;;;;;;;5044500;28;20460;-43
2022/09/24 06:07:37;;;;;;;14.10;10.77;;;;;;;;;;5051373;28;20804;-43
2022/09/24 06:10:04;;;;;;;16.30;11.40;;;;;;;;;;5050231;28;20398;-43
2022/09/24 06:12:33;;;;;;;13.53;11.30;;;;;;;;;;5051847;28;20437;-47
2022/09/24 06:14:59;;;;;;;14.70;11.30;;;;;;;;;;5048116;28;20787;-43
2022/09/24 06:17:26;;;;;;;15.30;11.87;;;;;;;;;;5051249;28;20527;-43
2022/09/24 06:19:52;;;;;;;21.30;11.30;;;;;;;;;;5037295;28;20484;-43
2022/09/24 06:22:19;;;;;;;10.93;9.80;;;;;;;;;;5045878;28;20417;-43
2022/09/24 06:24:45;;;;;;;15.47;10.60;;;;;;;;;;5033225;28;20832;-46
2022/09/24 06:27:10;;;;;;;15.90;10.93;;;;;;;;;;5044542;28;20436;-43
2022/09/24 06:29:36;;;;;;;17.73;12.03;;;;;;;;;;5051489;28;20423;-43
2022/09/24 06:32:03;;;;;;;21.83;12.40;;;;;;;;;;5052950;28;20415;-43
2022/09/24 06:34:28;;;;;;;15.17;11.83;;;;;;;;;;5036608;28;20434;-43
2022/09/24 06:36:55;;;;;;;17.23;11.20;;;;;;;;;;5033737;28;20896;-43
2022/09/24 06:39:25;;;;;;;17.30;12.13;;;;;;;;;;5052935;28;20871;-45
2022/09/24 06:41:51;;;;;;;14.43;11.10;;;;;;;;;;5040981;28;20867;-43
2022/09/24 06:44:18;;;;;;;14.83;11.07;;;;;;;;;;5034091;28;20465;-43
2022/09/24 06:46:44;;;;;;;16.40;11.50;;;;;;;;;;5039281;28;20955;-43
2022/09/24 06:49:11;;;;;;;17.23;10.43;;;;;;;;;;5039704;28;20496;-44
2022/09/24 06:51:37;;;;;;;17.97;11.93;;;;;;;;;;5047565;28;20431;-44
2022/09/24 06:54:03;;;;;;;14.67;11.10;;;;;;;;;;5041390;28;20897;-45
2022/09/24 06:56:29;;;;;;;16.13;11.30;;;;;;;;;;5045439;28;20441;-44
2022/09/24 06:58:55;;;;;;;16.90;10.30;;;;;;;;;;5040188;28;20908;-44
2022/09/24 07:01:21;;;;;;;19.63;12.37;;;;;;;;;;5034460;28;20512;-44
2022/09/24 07:03:47;;;;;;;14.90;10.90;;;;;;;;;;5032785;28;20571;-45
2022/09/24 07:06:13;;;;;;;15.43;10.27;;;;;;;;;;5046992;28;20416;-43
2022/09/24 07:08:40;;;;;;;17.03;12.60;;;;;;;;;;5052204;28;20500;-43
2022/09/24 07:11:06;;;;;;;14.57;10.30;;;;;;;;;;5038839;28;20675;-43
2022/09/24 07:13:32;;;;;;;14.20;10.57;;;;;;;;;;5032417;28;20782;-46
2022/09/24 07:16:00;;;;;;;12.03;10.53;;;;;;;;;;5033110;28;20414;-43
2022/09/24 07:18:26;;;;;;;13.90;9.83;;;;;;;;;;5032480;28;20414;-43
2022/09/24 07:20:53;;;;;;;15.33;11.33;;;;;;;;;;5043754;28;20450;-43
2022/09/24 07:23:20;;;;;;;13.70;10.00;;;;;;;;;;5051909;28;20409;-46
2022/09/24 07:25:46;;;;;;;14.47;10.70;;;;;;;;;;5041429;28;20528;-43
2022/09/24 07:28:13;;;;;;;12.80;10.60;;;;;;;;;;5032420;28;20860;-43
2022/09/24 07:30:39;;;;;;;10.60;8.90;;;;;;;;;;5034107;28;20423;-43
2022/09/24 07:33:08;;;;;;;12.47;9.53;;;;;;;;;;5031994;28;20833;-43
2022/09/24 07:35:36;;;;;;;14.90;10.37;;;;;;;;;;5039088;28;20452;-43
2022/09/24 07:38:04;;;;;;;13.50;9.90;;;;;;;;;;5051930;28;20431;-45
2022/09/24 07:40:30;;;;;;;14.93;10.37;;;;;;;;;;5045768;28;20425;-49
2022/09/24 07:42:57;;;;;;;13.93;10.33;;;;;;;;;;5031885;28;20493;-45
2022/09/24 07:45:23;;;;;;;14.47;10.57;;;;;;;;;;5032269;28;20429;-45
2022/09/24 07:47:56;;;;;;;16.40;11.40;;;;;;;;;;5040525;28;20779;-45
2022/09/24 07:50:22;;;;;;;13.50;10.53;;;;;;;;;;5046802;28;20426;-44
2022/09/24 07:52:51;;;;;;;14.87;10.70;;;;;;;;;;5031508;28;20808;-45
2022/09/24 07:55:17;;;;;;;13.17;10.40;;;;;;;;;;5036267;28;20891;-45
2022/09/24 07:57:50;;;;;;;15.00;11.30;;;;;;;;;;5037690;28;20446;-45
2022/09/24 08:00:17;;;;;;;12.93;9.60;;;;;;;;;;5036147;28;20471;-44
2022/09/24 08:02:43;;;;;;;15.00;11.30;;;;;;;;;;5050142;28;20408;-46
2022/09/24 08:05:09;;;;;;;18.67;10.17;;;;;;;;;;5031021;28;20435;-44
2022/09/24 08:07:35;;;;;;;12.33;10.60;;;;;;;;;;5031761;28;20444;-44
2022/09/24 08:10:01;;;;;;;13.60;10.20;;;;;;;;;;5046141;28;20919;-45
2022/09/24 08:12:27;;;;;;;13.70;11.10;;;;;;;;;;5031628;28;20744;-45
2022/09/24 08:14:53;;;;;;;12.20;9.90;;;;;;;;;;5048134;28;20394;-44
2022/09/24 08:17:20;;;;;;;16.77;10.20;;;;;;;;;;5051007;28;20406;-45
2022/09/24 08:19:46;;;;;;;13.77;10.60;;;;;;;;;;5035484;28;20449;-45
2022/09/24 08:22:15;;;;;;;12.83;10.10;;;;;;;;;;5031430;28;20419;-45
2022/09/24 08:24:42;;;;;;;12.03;9.50;;;;;;;;;;5045585;28;20459;-44
2022/09/24 08:27:08;;;;;;;13.07;9.10;;;;;;;;;;5051099;28;20422;-45
2022/09/24 08:29:34;;;;;;;14.57;9.90;;;;;;;;;;5044020;28;20825;-45
2022/09/24 08:32:00;;;;;;;11.20;9.30;;;;;;;;;;5051555;28;20425;-45
2022/09/24 08:34:26;;;;;;;14.50;10.17;;;;;;;;;;5038359;28;20449;-45
2022/09/24 08:36:52;;;;;;;11.10;9.57;;;;;;;;;;5030937;28;20452;-45
2022/09/24 08:39:18;;;;;;;10.27;8.70;;;;;;;;;;5042861;28;20395;-46
2022/09/24 08:41:56;;;;;;;12.70;8.60;;;;;;;;;;5051208;28;20772;-44
2022/09/24 08:47:21;;;;;;;10.87;9.10;;;;;;;;;;5050038;28;20499;-45
2022/09/24 08:49:48;;;;;;;9.90;8.83;;;;;;;;;;5051355;28;20485;-46
2022/09/24 08:52:40;;;;;;;11.83;8.80;;;;;;;;;;5050235;28;20413;-45
2022/09/24 08:55:09;;;;;;;11.37;8.60;;;;;;;;;;5045470;28;20416;-45
2022/09/24 08:57:49;;;;;;;12.53;9.03;;;;;;;;;;5031251;28;20510;-46
2022/09/24 09:00:15;;;;;;;12.43;8.57;;;;;;;;;;5036712;28;20384;-45
2022/09/24 09:02:44;;;;;;;9.87;8.73;;;;;;;;;;5050778;28;20810;-44
2022/09/24 09:05:18;;;;;;;11.63;9.30;;;;;;;;;;5044755;28;20446;-44
2022/09/24 09:07:49;;;;;;;13.40;9.40;;;;;;;;;;5049498;28;20794;-44
2022/09/24 09:10:17;;;;;;;10.77;7.97;;;;;;;;;;5050304;28;20436;-45
2022/09/24 09:12:52;;;;;;;9.30;7.13;;;;;;;;;;5050693;28;20372;-45
2022/09/24 09:15:24;;;;;;;10.17;7.57;;;;;;;;;;5043878;28;20836;-45
2022/09/24 09:17:56;;;;;;;11.47;7.60;;;;;;;;;;5030821;28;20419;-45
2022/09/24 09:20:42;;;;;;;11.60;8.13;;;;;;;;;;5036725;28;20986;-46
2022/09/24 09:23:34;;;;;;;13.73;8.83;;;;;;;;;;5050537;28;20398;-45
2022/09/24 09:26:00;;;;;;;12.93;8.20;;;;;;;;;;5039294;28;20391;-45
2022/09/24 09:28:27;;;;;;;15.90;8.73;;;;;;;;;;5034460;28;20470;-45
2022/09/24 09:31:13;;;;;;;11.97;8.67;;;;;;;;;;5044424;28;20858;-47
2022/09/24 09:33:45;;;;;;;11.00;9.60;;;;;;;;;;5054117;28;20426;-45
2022/09/24 09:36:21;;;;;;;12.07;8.50;;;;;;;;;;5038511;28;20378;-45
2022/09/24 09:38:47;;;;;;;10.53;9.33;;;;;;;;;;5034053;28;20410;-45
2022/09/24 09:41:16;;;;;;;11.07;8.90;;;;;;;;;;5046638;28;20406;-45
2022/09/24 09:43:43;;;;;;;13.13;9.70;;;;;;;;;;5047683;28;20388;-45
2022/09/24 09:46:12;;;;;;;14.60;9.50;;;;;;;;;;5033641;28;20414;-45
2022/09/24 09:48:46;;;;;;;11.10;9.07;;;;;;;;;;5038118;28;20988;-45
2022/09/24 09:51:19;;;;;;;11.13;8.60;;;;;;;;;;5054014;28;20410;-45
2022/09/24 09:54:01;;;;;;;11.97;8.63;;;;;;;;;;5049224;28;20415;-45
2022/09/24 09:56:33;;;;;;;13.37;9.93;;;;;;;;;;5033441;28;20411;-45
2022/09/24 09:59:18;;;;;;;12.20;8.50;;;;;;;;;;5040935;28;20479;-44
2022/09/24 10:01:54;;;;;;;11.37;8.70;;;;;;;;;;5050522;28;20461;-45
2022/09/24 10:04:23;;;;;;;11.37;8.47;;;;;;;;;;5053417;28;20813;-45
2022/09/24 10:06:49;;;;;;;13.73;9.07;;;;;;;;;;5037495;28;20434;-47
2022/09/24 10:09:18;;;;;;;21.40;8.60;;;;;;;;;;5041891;28;20417;-45
2022/09/24 10:11:44;;;;;;;10.60;8.20;;;;;;;;;;5053718;28;20849;-44
2022/09/24 10:14:20;;;;;;;12.83;8.00;;;;;;;;;;5046634;28;20389;-45
2022/09/24 10:16:49;;;;;;;13.03;8.00;;;;;;;;;;5044186;28;20441;-46
2022/09/24 10:19:18;;;;;;;8.70;7.80;;;;;;;;;;5054234;28;20896;-45
2022/09/24 10:21:44;;;;;;;12.87;8.90;;;;;;;;;;5057967;28;20416;-45
2022/09/24 10:24:20;;;;;;;9.50;8.07;;;;;;;;;;5053168;28;20485;-45
2022/09/24 10:26:46;;;;;;;10.70;7.30;;;;;;;;;;5052370;28;20426;-45
2022/09/24 10:32:01;;;;;;;8.50;6.77;;;;;;;;;;5049104;28;20972;-45
2022/09/24 10:34:27;;;;;;;9.33;6.90;;;;;;;;;;5041071;28;20467;-45
2022/09/24 10:36:58;;;;;;;12.60;6.77;;;;;;;;;;5044994;28;20439;-45
2022/09/24 10:39:24;;;;;;;10.67;6.17;;;;;;;;;;5051087;28;20430;-44
2022/09/24 10:41:51;;;;;;;9.77;6.40;;;;;;;;;;5048659;28;20403;-45
2022/09/24 10:44:17;;;;;;;8.93;5.73;;;;;;;;;;5047712;28;20530;-48
2022/09/24 10:46:46;;;;;;;9.93;6.23;;;;;;;;;;5046519;28;20450;-45
2022/09/24 10:49:18;;;;;;;8.70;6.30;;;;;;;;;;5048682;28;20402;-45
2022/09/24 10:52:03;;;;;;;7.80;6.00;;;;;;;;;;5038416;28;20469;-45
2022/09/24 10:54:48;;;;;;;7.53;5.50;;;;;;;;;;5053133;28;20413;-45
2022/09/24 10:57:21;;;;;;;6.67;5.90;;;;;;;;;;5048108;28;20423;-43
2022/09/24 11:00:01;;;;;;;10.67;5.37;;;;;;;;;;5052259;28;20413;-45
2022/09/24 11:02:33;;;;;;;6.47;5.40;;;;;;;;;;5052614;28;20425;-45
2022/09/24 11:05:04;;;;;;;8.10;5.23;;;;;;;;;;5050459;28;20965;-43
2022/09/24 11:07:42;;;;;;;7.47;5.87;;;;;;;;;;5032709;28;20436;-44
2022/09/24 11:10:19;;;;;;;6.90;5.67;;;;;;;;;;5036545;28;20415;-44
2022/09/24 11:13:09;;;;;;;7.57;6.17;;;;;;;;;;5052862;28;20438;-45
2022/09/24 11:15:53;;;;;;;8.13;6.90;;;;;;;;;;5034233;28;20487;-45
2022/09/24 11:18:28;;;;;;;6.93;6.13;;;;;;;;;;5032828;28;20423;-46
2022/09/24 11:20:54;;;;;;;8.60;6.90;;;;;;;;;;5042856;28;20504;-49
2022/09/24 11:23:39;;;;;;;6.70;6.00;;;;;;;;;;5052695;28;20401;-48
2022/09/24 11:26:14;;;;;;;6.63;6.03;;;;;;;;;;5040284;28;20441;-48
2022/09/24 11:28:54;;;;;;;7.87;5.37;;;;;;;;;;5032454;28;20753;-43
2022/09/24 11:31:20;;;;;;;5.63;5.03;;;;;;;;;;5045869;28;20503;-44
2022/09/24 11:34:11;;;;;;;6.67;5.70;;;;;;;;;;5050183;28;20948;-43
2022/09/24 11:36:45;;;;;;;6.60;5.30;;;;;;;;;;5050572;28;20495;-45
2022/09/24 11:39:33;;;;;;;8.20;6.13;;;;;;;;;;5032171;28;20814;-45
2022/09/24 11:42:21;;;;;;;10.30;5.77;;;;;;;;;;5049554;28;20934;-43
2022/09/24 11:44:54;;;;;;;9.40;6.90;;;;;;;;;;5052007;28;20494;-46
2022/09/24 11:47:41;;;;;;;5.70;5.20;;;;;;;;;;5031496;28;20433;-46
2022/09/24 11:50:27;;;;;;;8.17;6.07;;;;;;;;;;5032864;28;20399;-45
2022/09/24 11:52:53;;;;;;;6.67;5.97;;;;;;;;;;5051916;28;20402;-45
2022/09/24 11:55:22;;;;;;;5.83;5.23;;;;;;;;;;5047666;28;20431;-46
2022/09/24 11:58:13;;;;;;;9.20;5.90;;;;;;;;;;5040957;28;20435;-49
2022/09/24 12:00:45;;;;;;;7.90;6.17;;;;;;;;;;5037274;28;20509;-45
2022/09/24 12:03:16;;;;;;;9.10;6.60;;;;;;;;;;5051370;28;20492;-48
2022/09/24 12:05:43;;;;;;;10.23;6.73;;;;;;;;;;5047519;28;20473;-45
2022/09/24 12:08:09;;;;;;;9.93;6.27;;;;;;;;;;5034144;28;20439;-44
2022/09/24 12:10:44;;;;;;;9.23;6.40;;;;;;;;;;5051883;28;20477;-44
2022/09/24 12:13:20;;;;;;;10.63;6.57;;;;;;;;;;5048311;28;20425;-46
2022/09/24 12:15:49;;;;;;;8.57;6.00;;;;;;;;;;5038595;28;20413;-48
2022/09/24 12:18:24;;;;;;;7.90;6.87;;;;;;;;;;5050243;28;20960;-48
2022/09/24 12:20:52;;;;;;;13.30;8.27;;;;;;;;;;5031577;28;20784;-49
2022/09/24 12:23:20;;;;;;;8.93;6.80;;;;;;;;;;5044644;28;20977;-46
2022/09/24 12:25:48;;;;;;;8.50;7.50;;;;;;;;;;5051470;28;20452;-47
2022/09/24 12:32:53;;;;;;;10.93;8.30;;;;;;;;;;5034827;28;20503;-48
2022/09/24 12:34:07;;;;;;;11.90;8.93;;;;;;;;;;5031588;28;20408;-46
2022/09/24 12:36:56;;;;;;;9.63;8.53;;;;;;;;;;5032134;28;20407;-45
2022/09/24 12:39:25;;;;;;;11.73;8.00;;;;;;;;;;5049696;28;20397;-45
2022/09/24 12:41:57;;;;;;;9.97;8.13;;;;;;;;;;5052035;28;20724;-45
2022/09/24 12:44:28;;;;;;;11.63;8.77;;;;;;;;;;5049325;28;20546;-46
2022/09/24 12:46:55;;;;;;;10.47;8.23;;;;;;;;;;5046242;28;20404;-49
2022/09/24 12:49:24;;;;;;;10.17;7.50;;;;;;;;;;5051283;28;20485;-44
2022/09/24 12:51:51;;;;;;;9.60;8.07;;;;;;;;;;5051282;28;20405;-43
2022/09/24 12:54:26;;;;;;;8.37;7.43;;;;;;;;;;5031689;28;20426;-43
2022/09/24 12:56:52;;;;;;;9.93;8.13;;;;;;;;;;5031110;28;20501;-45
2022/09/24 12:59:26;;;;;;;9.27;8.20;;;;;;;;;;5050566;28;20492;-46
2022/09/24 13:01:52;;;;;;;9.20;7.90;;;;;;;;;;5055069;28;20390;-45
2022/09/24 13:04:18;;;;;;;10.60;8.27;;;;;;;;;;5036250;28;21044;-45
2022/09/24 13:06:47;;;;;;;13.37;7.80;;;;;;;;;;5034584;28;20475;-45
2022/09/24 13:09:32;;;;;;;13.67;8.00;;;;;;;;;;5053188;28;20413;-47
2022/09/24 13:12:17;;;;;;;14.07;9.47;;;;;;;;;;5055095;28;20904;-46
2022/09/24 13:14:48;;;;;;;12.13;8.93;;;;;;;;;;5034945;28;20383;-45
2022/09/24 13:17:14;;;;;;;13.23;10.03;;;;;;;;;;5036039;28;20474;-45
2022/09/24 13:19:44;;;;;;;11.73;9.53;;;;;;;;;;5054496;28;20408;-48
2022/09/24 13:22:36;;;;;;;10.43;8.20;;;;;;;;;;5054357;28;20800;-44
2022/09/24 13:25:08;;;;;;;12.10;9.43;;;;;;;;;;5043812;28;20447;-47
2022/09/24 13:27:37;;;;;;;12.87;10.43;;;;;;;;;;5045709;28;20423;-43
2022/09/24 13:30:06;;;;;;;12.10;8.63;;;;;;;;;;5052498;28;20413;-45
2022/09/24 13:32:36;;;;;;;12.63;10.07;;;;;;;;;;5034857;28;20464;-45
2022/09/24 13:35:06;;;;;;;11.10;9.37;;;;;;;;;;5053744;28;20787;-45
2022/09/24 13:37:35;;;;;;;11.20;8.73;;;;;;;;;;5053934;28;20929;-47
2022/09/24 13:40:16;;;;;;;11.73;10.40;;;;;;;;;;5054107;28;20387;-46
2022/09/24 13:42:45;;;;;;;12.10;10.87;;;;;;;;;;5054898;28;20380;-43
2022/09/24 13:45:17;;;;;;;12.53;10.33;;;;;;;;;;5053764;28;20451;-43
2022/09/24 13:47:49;;;;;;;16.20;11.63;;;;;;;;;;5055171;28;20429;-45
2022/09/24 13:50:22;;;;;;;12.80;10.30;;;;;;;;;;5048084;28;20659;-45
2022/09/24 13:52:54;;;;;;;16.30;10.67;;;;;;;;;;5043391;28;20993;-47
2022/09/24 13:55:22;;;;;;;16.90;9.90;;;;;;;;;;5034918;28;20906;-46
2022/09/24 13:57:48;;;;;;;11.67;8.40;;;;;;;;;;5035544;28;20492;-46
2022/09/24 14:00:18;;;;;;;9.57;8.13;;;;;;;;;;5033732;28;20426;-45
2022/09/24 14:02:59;;;;;;;13.80;11.07;;;;;;;;;;5034562;28;20400;-45
2022/09/24 14:05:25;;;;;;;12.17;9.60;;;;;;;;;;5033073;28;20429;-45
2022/09/24 14:07:56;;;;;;;11.30;9.70;;;;;;;;;;5034381;28;20548;-45
2022/09/24 14:10:24;;;;;;;11.03;9.73;;;;;;;;;;5032275;28;20468;-44
2022/09/24 14:13:07;;;;;;;15.83;11.77;;;;;;;;;;5032956;28;20427;-45
2022/09/24 14:15:35;;;;;;;16.40;10.20;;;;;;;;;;5033298;28;20391;-45
2022/09/24 14:18:00;;;;;;;13.60;9.60;;;;;;;;;;5033669;28;20433;-45
2022/09/24 14:20:28;;;;;;;13.70;11.13;;;;;;;;;;5033307;28;20844;-45
2022/09/24 14:22:54;;;;;;;13.50;10.90;;;;;;;;;;5033503;28;20777;-45
2022/09/24 14:25:27;;;;;;;13.40;11.70;;;;;;;;;;5033016;28;20549;-45
2022/09/24 14:27:53;;;;;;;14.87;13.03;;;;;;;;;;5033652;28;20774;-45
2022/09/24 14:30:26;;;;;;;17.30;14.10;;;;;;;;;;5033315;28;20377;-45
2022/09/24 14:32:57;;;;;;;17.17;14.60;;;;;;;;;;5033168;28;20429;-45
2022/09/24 14:35:37;;;;;;;18.53;13.20;;;;;;;;;;5032801;28;20727;-45
2022/09/24 14:38:08;;;;;;;14.43;11.57;;;;;;;;;;5033546;28;20465;-45
2022/09/24 14:40:43;;;;;;;13.70;12.10;;;;;;;;;;5033271;28;20430;-45
2022/09/24 14:43:14;;;;;;;16.03;12.93;;;;;;;;;;5033184;28;20916;-46
2022/09/24 14:45:40;;;;;;;14.27;12.07;;;;;;;;;;5032238;28;20522;-44
2022/09/24 14:48:17;;;;;;;17.03;13.13;;;;;;;;;;5033227;28;20510;-44
2022/09/24 14:50:43;;;;;;;19.67;14.47;;;;;;;;;;5046589;28;20382;-43
2022/09/24 14:53:13;;;;;;;24.90;16.43;;;;;;;;;;5052774;28;20477;-43